sensor_id;sensor_type;location;lat;lon;timestamp;P1;durP1;ratioP1;P2;durP2;ratioP2
1328;SDS011;658;48.820;9.354;2023-05-21T00:01:32;3.70;;;3.50;;
1328;SDS011;658;48.820;9.354;2023-05-21T00:05:33;4.07;;;3.77;;
1328;SDS011;658;48.820;9.354;2023-05-21T00:09:36;4.27;;;3.97;;
1328;SDS011;658;48.820;9.354;2023-05-21T00:13:37;4.27;;;4.00;;
1328;SDS011;658;48.820;9.354;2023-05-21T00:17:40;4.50;;;4.20;;
1328;SDS011;658;48.820;9.354;2023-05-21T00:21:42;4.40;;;4.10;;
1328;SDS011;658;48.820;9.354;2023-05-21T00:25:44;4.00;;;3.70;;
1328;SDS011;658;48.820;9.354;2023-05-21T00:29:45;4.37;;;4.07;;
1328;SDS011;658;48.820;9.354;2023-05-21T00:33:48;4.50;;;4.20;;
1328;SDS011;658;48.820;9.354;2023-05-21T00:37:49;4.23;;;3.93;;
1328;SDS011;658;48.820;9.354;2023-05-21T00:41:50;3.80;;;3.50;;
1328;SDS011;658;48.820;9.354;2023-05-21T00:45:51;4.30;;;4.00;;
1328;SDS011;658;48.820;9.354;2023-05-21T00:49:52;3.50;;;3.30;;
1328;SDS011;658;48.820;9.354;2023-05-21T00:53:53;4.00;;;3.80;;
1328;SDS011;658;48.820;9.354;2023-05-21T00:57:56;3.80;;;3.50;;
1328;SDS011;658;48.820;9.354;2023-05-21T01:01:57;4.10;;;3.80;;
1328;SDS011;658;48.820;9.354;2023-05-21T01:06:06;4.60;;;4.30;;
1328;SDS011;658;48.820;9.354;2023-05-21T01:10:08;3.73;;;3.43;;
1328;SDS011;658;48.820;9.354;2023-05-21T01:14:12;3.90;;;3.60;;
1328;SDS011;658;48.820;9.354;2023-05-21T01:18:19;3.93;;;3.73;;
1328;SDS011;658;48.820;9.354;2023-05-21T01:22:21;3.90;;;3.60;;
1328;SDS011;658;48.820;9.354;2023-05-21T01:26:23;3.57;;;3.33;;
1328;SDS011;658;48.820;9.354;2023-05-21T01:30:27;3.67;;;3.47;;
1328;SDS011;658;48.820;9.354;2023-05-21T01:34:44;3.53;;;3.33;;
1328;SDS011;658;48.820;9.354;2023-05-21T01:39:02;3.90;;;3.60;;
1328;SDS011;658;48.820;9.354;2023-05-21T01:43:08;4.20;;;3.90;;
1328;SDS011;658;48.820;9.354;2023-05-21T01:47:10;3.87;;;3.60;;
1328;SDS011;658;48.820;9.354;2023-05-21T01:51:11;4.23;;;3.93;;
1328;SDS011;658;48.820;9.354;2023-05-21T01:55:12;4.10;;;3.80;;
1328;SDS011;658;48.820;9.354;2023-05-21T01:59:13;3.83;;;3.57;;
1328;SDS011;658;48.820;9.354;2023-05-21T02:03:14;3.60;;;3.40;;
1328;SDS011;658;48.820;9.354;2023-05-21T02:07:15;3.60;;;3.40;;
1328;SDS011;658;48.820;9.354;2023-05-21T02:11:18;3.73;;;3.43;;
1328;SDS011;658;48.820;9.354;2023-05-21T02:15:19;3.60;;;3.40;;
1328;SDS011;658;48.820;9.354;2023-05-21T02:19:23;3.93;;;3.63;;
1328;SDS011;658;48.820;9.354;2023-05-21T02:23:24;3.80;;;3.50;;
1328;SDS011;658;48.820;9.354;2023-05-21T02:27:25;3.80;;;3.50;;
1328;SDS011;658;48.820;9.354;2023-05-21T02:31:30;3.70;;;3.50;;
1328;SDS011;658;48.820;9.354;2023-05-21T02:35:31;3.73;;;3.50;;
1328;SDS011;658;48.820;9.354;2023-05-21T02:39:34;3.10;;;2.90;;
1328;SDS011;658;48.820;9.354;2023-05-21T02:43:35;3.57;;;3.37;;
1328;SDS011;658;48.820;9.354;2023-05-21T02:47:35;3.57;;;3.37;;
1328;SDS011;658;48.820;9.354;2023-05-21T02:51:37;3.50;;;3.30;;
1328;SDS011;658;48.820;9.354;2023-05-21T02:55:37;3.43;;;3.23;;
1328;SDS011;658;48.820;9.354;2023-05-21T02:59:38;3.33;;;3.13;;
1328;SDS011;658;48.820;9.354;2023-05-21T03:03:38;3.40;;;3.20;;
1328;SDS011;658;48.820;9.354;2023-05-21T03:07:39;3.30;;;3.10;;
1328;SDS011;658;48.820;9.354;2023-05-21T03:11:41;3.70;;;3.50;;
1328;SDS011;658;48.820;9.354;2023-05-21T03:15:42;3.77;;;3.57;;
1328;SDS011;658;48.820;9.354;2023-05-21T03:19:43;3.70;;;3.47;;
1328;SDS011;658;48.820;9.354;2023-05-21T03:23:44;3.73;;;3.53;;
1328;SDS011;658;48.820;9.354;2023-05-21T03:27:46;3.33;;;3.13;;
1328;SDS011;658;48.820;9.354;2023-05-21T03:31:47;3.13;;;2.93;;
1328;SDS011;658;48.820;9.354;2023-05-21T03:35:47;3.27;;;3.07;;
1328;SDS011;658;48.820;9.354;2023-05-21T03:39:51;3.77;;;3.47;;
1328;SDS011;658;48.820;9.354;2023-05-21T03:43:51;3.57;;;3.37;;
1328;SDS011;658;48.820;9.354;2023-05-21T03:47:54;3.97;;;3.67;;
1328;SDS011;658;48.820;9.354;2023-05-21T03:51:55;3.53;;;3.33;;
1328;SDS011;658;48.820;9.354;2023-05-21T03:55:55;3.40;;;3.20;;
1328;SDS011;658;48.820;9.354;2023-05-21T03:59:56;3.77;;;3.57;;
1328;SDS011;658;48.820;9.354;2023-05-21T04:03:57;3.63;;;3.43;;
1328;SDS011;658;48.820;9.354;2023-05-21T04:08:00;3.50;;;3.30;;
1328;SDS011;658;48.820;9.354;2023-05-21T04:12:01;3.40;;;3.20;;
1328;SDS011;658;48.820;9.354;2023-05-21T04:16:02;3.97;;;3.67;;
1328;SDS011;658;48.820;9.354;2023-05-21T04:20:02;3.83;;;3.53;;
1328;SDS011;658;48.820;9.354;2023-05-21T04:24:03;3.30;;;3.10;;
1328;SDS011;658;48.820;9.354;2023-05-21T04:28:04;3.63;;;3.43;;
1328;SDS011;658;48.820;9.354;2023-05-21T04:32:05;3.80;;;3.50;;
1328;SDS011;658;48.820;9.354;2023-05-21T04:36:06;3.17;;;2.97;;
1328;SDS011;658;48.820;9.354;2023-05-21T04:40:08;3.63;;;3.43;;
1328;SDS011;658;48.820;9.354;2023-05-21T04:44:09;3.40;;;3.20;;
1328;SDS011;658;48.820;9.354;2023-05-21T04:48:13;3.67;;;3.40;;
1328;SDS011;658;48.820;9.354;2023-05-21T04:52:14;3.17;;;2.97;;
1328;SDS011;658;48.820;9.354;2023-05-21T04:56:15;3.87;;;3.57;;
1328;SDS011;658;48.820;9.354;2023-05-21T05:00:17;4.00;;;3.70;;
1328;SDS011;658;48.820;9.354;2023-05-21T05:04:18;3.40;;;3.20;;
1328;SDS011;658;48.820;9.354;2023-05-21T05:08:18;3.60;;;3.40;;
1328;SDS011;658;48.820;9.354;2023-05-21T05:12:19;3.30;;;3.10;;
1328;SDS011;658;48.820;9.354;2023-05-21T05:16:20;3.53;;;3.33;;
1328;SDS011;658;48.820;9.354;2023-05-21T05:20:24;3.50;;;3.30;;
1328;SDS011;658;48.820;9.354;2023-05-21T05:24:25;3.50;;;3.30;;
1328;SDS011;658;48.820;9.354;2023-05-21T05:28:26;3.20;;;3.00;;
1328;SDS011;658;48.820;9.354;2023-05-21T05:32:26;3.13;;;2.93;;
1328;SDS011;658;48.820;9.354;2023-05-21T05:36:27;3.60;;;3.40;;
1328;SDS011;658;48.820;9.354;2023-05-21T05:40:28;3.30;;;3.10;;
1328;SDS011;658;48.820;9.354;2023-05-21T05:44:28;3.30;;;3.10;;
1328;SDS011;658;48.820;9.354;2023-05-21T05:48:29;3.10;;;2.90;;
1328;SDS011;658;48.820;9.354;2023-05-21T05:52:30;3.20;;;3.00;;
1328;SDS011;658;48.820;9.354;2023-05-21T05:56:30;3.13;;;2.93;;
1328;SDS011;658;48.820;9.354;2023-05-21T06:00:31;3.27;;;3.07;;
1328;SDS011;658;48.820;9.354;2023-05-21T06:04:31;3.43;;;3.23;;
1328;SDS011;658;48.820;9.354;2023-05-21T06:08:32;3.40;;;3.20;;
1328;SDS011;658;48.820;9.354;2023-05-21T06:12:33;2.97;;;2.77;;
1328;SDS011;658;48.820;9.354;2023-05-21T06:16:34;3.30;;;3.10;;
1328;SDS011;658;48.820;9.354;2023-05-21T06:20:36;3.23;;;3.03;;
1328;SDS011;658;48.820;9.354;2023-05-21T06:24:36;3.03;;;2.83;;
1328;SDS011;658;48.820;9.354;2023-05-21T06:28:37;3.47;;;3.27;;
1328;SDS011;658;48.820;9.354;2023-05-21T06:32:37;3.50;;;3.30;;
1328;SDS011;658;48.820;9.354;2023-05-21T06:36:38;3.77;;;3.53;;
1328;SDS011;658;48.820;9.354;2023-05-21T06:40:38;3.30;;;3.10;;
1328;SDS011;658;48.820;9.354;2023-05-21T06:44:43;3.03;;;2.83;;
1328;SDS011;658;48.820;9.354;2023-05-21T06:48:44;3.13;;;2.93;;
1328;SDS011;658;48.820;9.354;2023-05-21T06:52:47;3.30;;;3.10;;
1328;SDS011;658;48.820;9.354;2023-05-21T06:56:50;3.47;;;3.27;;
1328;SDS011;658;48.820;9.354;2023-05-21T07:00:53;3.10;;;2.90;;
1328;SDS011;658;48.820;9.354;2023-05-21T07:04:53;3.43;;;3.23;;
1328;SDS011;658;48.820;9.354;2023-05-21T07:08:54;3.53;;;3.33;;
1328;SDS011;658;48.820;9.354;2023-05-21T07:12:55;3.00;;;2.80;;
1328;SDS011;658;48.820;9.354;2023-05-21T07:16:55;3.63;;;3.33;;
1328;SDS011;658;48.820;9.354;2023-05-21T07:20:56;3.73;;;3.53;;
1328;SDS011;658;48.820;9.354;2023-05-21T07:24:57;3.47;;;3.27;;
1328;SDS011;658;48.820;9.354;2023-05-21T07:28:57;3.37;;;3.17;;
1328;SDS011;658;48.820;9.354;2023-05-21T07:33:00;4.03;;;3.73;;
1328;SDS011;658;48.820;9.354;2023-05-21T07:37:01;3.50;;;3.30;;
1328;SDS011;658;48.820;9.354;2023-05-21T07:41:01;3.60;;;3.40;;
1328;SDS011;658;48.820;9.354;2023-05-21T07:45:02;3.37;;;3.17;;
1328;SDS011;658;48.820;9.354;2023-05-21T07:49:03;3.33;;;3.13;;
1328;SDS011;658;48.820;9.354;2023-05-21T07:53:06;3.43;;;3.23;;
1328;SDS011;658;48.820;9.354;2023-05-21T07:57:06;3.73;;;3.53;;
1328;SDS011;658;48.820;9.354;2023-05-21T08:01:07;3.50;;;3.30;;
1328;SDS011;658;48.820;9.354;2023-05-21T08:05:10;3.50;;;3.30;;
1328;SDS011;658;48.820;9.354;2023-05-21T08:09:15;3.43;;;3.23;;
1328;SDS011;658;48.820;9.354;2023-05-21T08:13:17;3.40;;;3.20;;
1328;SDS011;658;48.820;9.354;2023-05-21T08:17:17;3.50;;;3.30;;
1328;SDS011;658;48.820;9.354;2023-05-21T08:21:21;3.47;;;3.27;;
1328;SDS011;658;48.820;9.354;2023-05-21T08:25:21;3.60;;;3.40;;
1328;SDS011;658;48.820;9.354;2023-05-21T08:29:23;3.60;;;3.40;;
1328;SDS011;658;48.820;9.354;2023-05-21T08:33:23;3.33;;;3.13;;
1328;SDS011;658;48.820;9.354;2023-05-21T08:37:24;3.60;;;3.30;;
1328;SDS011;658;48.820;9.354;2023-05-21T08:41:25;3.60;;;3.40;;
1328;SDS011;658;48.820;9.354;2023-05-21T08:45:26;3.13;;;2.93;;
1328;SDS011;658;48.820;9.354;2023-05-21T08:49:36;4.03;;;3.73;;
1328;SDS011;658;48.820;9.354;2023-05-21T08:53:37;3.77;;;3.47;;
1328;SDS011;658;48.820;9.354;2023-05-21T08:57:41;4.20;;;3.90;;
1328;SDS011;658;48.820;9.354;2023-05-21T09:01:43;4.13;;;3.83;;
1328;SDS011;658;48.820;9.354;2023-05-21T09:05:44;3.70;;;3.50;;
1328;SDS011;658;48.820;9.354;2023-05-21T09:10:06;3.43;;;3.23;;
1328;SDS011;658;48.820;9.354;2023-05-21T09:14:08;3.30;;;3.10;;
1328;SDS011;658;48.820;9.354;2023-05-21T09:18:13;3.50;;;3.30;;
1328;SDS011;658;48.820;9.354;2023-05-21T09:22:13;3.87;;;3.57;;
1328;SDS011;658;48.820;9.354;2023-05-21T09:26:14;4.23;;;3.93;;
1328;SDS011;658;48.820;9.354;2023-05-21T09:30:16;4.77;;;4.40;;
1328;SDS011;658;48.820;9.354;2023-05-21T09:34:18;5.00;;;3.70;;
1328;SDS011;658;48.820;9.354;2023-05-21T09:38:20;5.13;;;4.30;;
1328;SDS011;658;48.820;9.354;2023-05-21T09:42:22;4.80;;;4.20;;
1328;SDS011;658;48.820;9.354;2023-05-21T09:46:24;4.13;;;3.80;;
1328;SDS011;658;48.820;9.354;2023-05-21T09:50:26;4.00;;;3.70;;
1328;SDS011;658;48.820;9.354;2023-05-21T09:54:30;4.83;;;4.33;;
1328;SDS011;658;48.820;9.354;2023-05-21T09:58:33;4.60;;;4.27;;
1328;SDS011;658;48.820;9.354;2023-05-21T10:02:33;3.93;;;3.63;;
1328;SDS011;658;48.820;9.354;2023-05-21T10:06:41;3.90;;;3.60;;
1328;SDS011;658;48.820;9.354;2023-05-21T10:10:42;4.50;;;4.20;;
1328;SDS011;658;48.820;9.354;2023-05-21T10:14:45;4.70;;;4.30;;
1328;SDS011;658;48.820;9.354;2023-05-21T10:18:51;5.40;;;5.00;;
1328;SDS011;658;48.820;9.354;2023-05-21T10:22:53;4.90;;;4.40;;
1328;SDS011;658;48.820;9.354;2023-05-21T10:26:55;5.83;;;5.33;;
1328;SDS011;658;48.820;9.354;2023-05-21T10:30:56;5.03;;;4.67;;
1328;SDS011;658;48.820;9.354;2023-05-21T10:34:57;4.97;;;4.67;;
1328;SDS011;658;48.820;9.354;2023-05-21T10:38:59;5.30;;;4.80;;
1328;SDS011;658;48.820;9.354;2023-05-21T10:43:08;7.10;;;5.07;;
1328;SDS011;658;48.820;9.354;2023-05-21T10:51:52;5.07;;;4.67;;
1328;SDS011;658;48.820;9.354;2023-05-21T10:56:16;5.00;;;4.70;;
1328;SDS011;658;48.820;9.354;2023-05-21T11:00:23;4.67;;;4.33;;
1328;SDS011;658;48.820;9.354;2023-05-21T11:04:27;5.57;;;5.07;;
1328;SDS011;658;48.820;9.354;2023-05-21T11:08:29;4.93;;;4.53;;
1328;SDS011;658;48.820;9.354;2023-05-21T11:12:33;4.50;;;4.20;;
1328;SDS011;658;48.820;9.354;2023-05-21T11:16:35;5.37;;;4.90;;
1328;SDS011;658;48.820;9.354;2023-05-21T11:20:38;4.30;;;4.00;;
1328;SDS011;658;48.820;9.354;2023-05-21T11:24:41;4.83;;;4.50;;
1328;SDS011;658;48.820;9.354;2023-05-21T11:28:42;5.13;;;4.73;;
1328;SDS011;658;48.820;9.354;2023-05-21T11:41:18;5.13;;;4.73;;
1328;SDS011;658;48.820;9.354;2023-05-21T11:45:21;5.03;;;4.63;;
1328;SDS011;658;48.820;9.354;2023-05-21T11:49:27;4.93;;;4.53;;
1328;SDS011;658;48.820;9.354;2023-05-21T11:53:28;4.80;;;4.50;;
1328;SDS011;658;48.820;9.354;2023-05-21T11:57:29;4.90;;;4.50;;
1328;SDS011;658;48.820;9.354;2023-05-21T12:01:29;4.70;;;4.30;;
1328;SDS011;658;48.820;9.354;2023-05-21T12:05:30;5.17;;;4.77;;
1328;SDS011;658;48.820;9.354;2023-05-21T12:09:46;5.03;;;4.73;;
1328;SDS011;658;48.820;9.354;2023-05-21T12:13:48;5.17;;;4.77;;
1328;SDS011;658;48.820;9.354;2023-05-21T12:17:49;4.77;;;4.37;;
1328;SDS011;658;48.820;9.354;2023-05-21T12:21:51;4.57;;;4.27;;
1328;SDS011;658;48.820;9.354;2023-05-21T12:25:52;4.77;;;4.47;;
1328;SDS011;658;48.820;9.354;2023-05-21T12:29:53;4.73;;;4.33;;
1328;SDS011;658;48.820;9.354;2023-05-21T12:33:54;5.13;;;4.63;;
1328;SDS011;658;48.820;9.354;2023-05-21T12:37:55;4.33;;;4.03;;
1328;SDS011;658;48.820;9.354;2023-05-21T12:41:55;4.77;;;4.47;;
1328;SDS011;658;48.820;9.354;2023-05-21T12:45:56;5.40;;;5.00;;
1328;SDS011;658;48.820;9.354;2023-05-21T12:49:58;4.80;;;4.50;;
1328;SDS011;658;48.820;9.354;2023-05-21T12:54:00;4.60;;;4.30;;
1328;SDS011;658;48.820;9.354;2023-05-21T12:58:04;4.80;;;4.50;;
1328;SDS011;658;48.820;9.354;2023-05-21T13:02:07;4.67;;;4.37;;
1328;SDS011;658;48.820;9.354;2023-05-21T13:06:08;4.67;;;4.37;;
1328;SDS011;658;48.820;9.354;2023-05-21T13:10:08;4.53;;;4.23;;
1328;SDS011;658;48.820;9.354;2023-05-21T13:14:10;4.80;;;4.50;;
1328;SDS011;658;48.820;9.354;2023-05-21T13:18:13;4.53;;;4.23;;
1328;SDS011;658;48.820;9.354;2023-05-21T13:22:15;4.00;;;3.70;;
1328;SDS011;658;48.820;9.354;2023-05-21T13:26:16;4.40;;;4.10;;
1328;SDS011;658;48.820;9.354;2023-05-21T13:30:17;4.93;;;4.53;;
1328;SDS011;658;48.820;9.354;2023-05-21T13:34:18;5.13;;;4.73;;
1328;SDS011;658;48.820;9.354;2023-05-21T13:38:19;4.33;;;4.03;;
1328;SDS011;658;48.820;9.354;2023-05-21T13:42:20;4.40;;;4.10;;
1328;SDS011;658;48.820;9.354;2023-05-21T13:46:22;4.10;;;3.80;;
1328;SDS011;658;48.820;9.354;2023-05-21T13:50:23;4.20;;;3.90;;
1328;SDS011;658;48.820;9.354;2023-05-21T13:54:26;4.20;;;3.90;;
1328;SDS011;658;48.820;9.354;2023-05-21T13:58:29;4.53;;;4.23;;
1328;SDS011;658;48.820;9.354;2023-05-21T14:02:36;4.33;;;4.03;;
1328;SDS011;658;48.820;9.354;2023-05-21T14:06:36;4.57;;;4.17;;
1328;SDS011;658;48.820;9.354;2023-05-21T14:10:40;4.37;;;4.07;;
1328;SDS011;658;48.820;9.354;2023-05-21T14:14:41;4.63;;;4.33;;
1328;SDS011;658;48.820;9.354;2023-05-21T14:18:41;3.40;;;3.20;;
1328;SDS011;658;48.820;9.354;2023-05-21T14:22:42;4.10;;;3.90;;
1328;SDS011;658;48.820;9.354;2023-05-21T14:26:42;3.80;;;3.50;;
1328;SDS011;658;48.820;9.354;2023-05-21T14:30:43;3.97;;;3.67;;
1328;SDS011;658;48.820;9.354;2023-05-21T14:34:43;4.27;;;3.97;;
1328;SDS011;658;48.820;9.354;2023-05-21T14:38:44;4.33;;;4.03;;
1328;SDS011;658;48.820;9.354;2023-05-21T14:42:48;4.30;;;4.00;;
1328;SDS011;658;48.820;9.354;2023-05-21T14:46:48;4.00;;;3.70;;
1328;SDS011;658;48.820;9.354;2023-05-21T14:50:50;3.87;;;3.57;;
1328;SDS011;658;48.820;9.354;2023-05-21T14:54:50;4.17;;;3.87;;
1328;SDS011;658;48.820;9.354;2023-05-21T14:58:51;4.13;;;3.83;;
1328;SDS011;658;48.820;9.354;2023-05-21T15:02:52;4.17;;;3.87;;
1328;SDS011;658;48.820;9.354;2023-05-21T15:06:52;4.27;;;3.93;;
1328;SDS011;658;48.820;9.354;2023-05-21T15:10:53;4.50;;;4.20;;
1328;SDS011;658;48.820;9.354;2023-05-21T15:14:54;3.83;;;3.53;;
1328;SDS011;658;48.820;9.354;2023-05-21T15:18:54;3.60;;;3.40;;
1328;SDS011;658;48.820;9.354;2023-05-21T15:22:55;4.10;;;3.80;;
1328;SDS011;658;48.820;9.354;2023-05-21T15:26:57;3.57;;;3.37;;
1328;SDS011;658;48.820;9.354;2023-05-21T15:30:58;3.97;;;3.67;;
1328;SDS011;658;48.820;9.354;2023-05-21T15:34:58;3.43;;;3.23;;
1328;SDS011;658;48.820;9.354;2023-05-21T15:38:59;3.87;;;3.57;;
1328;SDS011;658;48.820;9.354;2023-05-21T15:43:02;3.60;;;3.40;;
1328;SDS011;658;48.820;9.354;2023-05-21T15:47:02;3.60;;;3.40;;
1328;SDS011;658;48.820;9.354;2023-05-21T15:51:04;3.60;;;3.40;;
1328;SDS011;658;48.820;9.354;2023-05-21T15:55:04;3.67;;;3.47;;
1328;SDS011;658;48.820;9.354;2023-05-21T15:59:05;3.57;;;3.37;;
1328;SDS011;658;48.820;9.354;2023-05-21T16:03:08;4.10;;;3.80;;
1328;SDS011;658;48.820;9.354;2023-05-21T16:07:10;3.30;;;3.10;;
1328;SDS011;658;48.820;9.354;2023-05-21T16:11:11;4.00;;;3.70;;
1328;SDS011;658;48.820;9.354;2023-05-21T16:15:12;3.80;;;3.50;;
1328;SDS011;658;48.820;9.354;2023-05-21T16:19:12;3.90;;;3.70;;
1328;SDS011;658;48.820;9.354;2023-05-21T16:23:13;3.63;;;3.43;;
1328;SDS011;658;48.820;9.354;2023-05-21T16:27:14;3.83;;;3.53;;
1328;SDS011;658;48.820;9.354;2023-05-21T16:31:14;4.17;;;3.87;;
1328;SDS011;658;48.820;9.354;2023-05-21T16:35:15;3.73;;;3.53;;
1328;SDS011;658;48.820;9.354;2023-05-21T16:39:16;3.57;;;3.37;;
1328;SDS011;658;48.820;9.354;2023-05-21T16:43:16;3.50;;;3.30;;
1328;SDS011;658;48.820;9.354;2023-05-21T16:47:20;3.80;;;3.60;;
1328;SDS011;658;48.820;9.354;2023-05-21T16:51:23;3.50;;;3.20;;
1328;SDS011;658;48.820;9.354;2023-05-21T16:55:26;3.90;;;3.60;;
1328;SDS011;658;48.820;9.354;2023-05-21T16:59:29;3.43;;;3.23;;
1328;SDS011;658;48.820;9.354;2023-05-21T17:03:29;3.50;;;3.30;;
1328;SDS011;658;48.820;9.354;2023-05-21T17:07:31;3.47;;;3.27;;
1328;SDS011;658;48.820;9.354;2023-05-21T17:11:32;3.33;;;3.13;;
1328;SDS011;658;48.820;9.354;2023-05-21T17:15:34;3.50;;;3.30;;
1328;SDS011;658;48.820;9.354;2023-05-21T17:19:35;3.90;;;3.70;;
1328;SDS011;658;48.820;9.354;2023-05-21T17:23:36;3.60;;;3.40;;
1328;SDS011;658;48.820;9.354;2023-05-21T17:27:37;3.47;;;3.27;;
1328;SDS011;658;48.820;9.354;2023-05-21T17:31:38;4.70;;;3.40;;
1328;SDS011;658;48.820;9.354;2023-05-21T17:35:38;3.77;;;3.47;;
1328;SDS011;658;48.820;9.354;2023-05-21T17:39:39;3.60;;;3.40;;
1328;SDS011;658;48.820;9.354;2023-05-21T17:43:40;3.33;;;3.13;;
1328;SDS011;658;48.820;9.354;2023-05-21T17:47:40;3.23;;;3.03;;
1328;SDS011;658;48.820;9.354;2023-05-21T17:51:41;3.73;;;3.47;;
1328;SDS011;658;48.820;9.354;2023-05-21T17:55:45;3.40;;;3.20;;
1328;SDS011;658;48.820;9.354;2023-05-21T17:59:46;3.23;;;2.93;;
1328;SDS011;658;48.820;9.354;2023-05-21T18:03:46;4.10;;;3.50;;
1328;SDS011;658;48.820;9.354;2023-05-21T18:07:49;3.67;;;3.40;;
1328;SDS011;658;48.820;9.354;2023-05-21T18:11:50;3.53;;;3.33;;
1328;SDS011;658;48.820;9.354;2023-05-21T18:15:50;3.93;;;3.57;;
1328;SDS011;658;48.820;9.354;2023-05-21T18:19:54;3.70;;;3.40;;
1328;SDS011;658;48.820;9.354;2023-05-21T18:23:54;3.40;;;3.17;;
1328;SDS011;658;48.820;9.354;2023-05-21T18:27:55;3.43;;;3.23;;
1328;SDS011;658;48.820;9.354;2023-05-21T18:31:55;3.90;;;3.70;;
1328;SDS011;658;48.820;9.354;2023-05-21T18:35:56;3.47;;;3.27;;
1328;SDS011;658;48.820;9.354;2023-05-21T18:39:57;3.60;;;3.30;;
1328;SDS011;658;48.820;9.354;2023-05-21T18:43:58;3.60;;;3.40;;
1328;SDS011;658;48.820;9.354;2023-05-21T18:48:00;3.07;;;2.87;;
1328;SDS011;658;48.820;9.354;2023-05-21T18:52:02;3.40;;;3.20;;
1328;SDS011;658;48.820;9.354;2023-05-21T18:56:06;3.30;;;3.10;;
1328;SDS011;658;48.820;9.354;2023-05-21T19:00:09;3.70;;;3.40;;
1328;SDS011;658;48.820;9.354;2023-05-21T19:04:11;4.30;;;3.20;;
1328;SDS011;658;48.820;9.354;2023-05-21T19:08:12;3.70;;;3.50;;
1328;SDS011;658;48.820;9.354;2023-05-21T19:12:12;3.17;;;2.87;;
1328;SDS011;658;48.820;9.354;2023-05-21T19:16:15;3.30;;;3.10;;
1328;SDS011;658;48.820;9.354;2023-05-21T19:20:21;3.50;;;3.30;;
1328;SDS011;658;48.820;9.354;2023-05-21T19:24:25;3.70;;;3.40;;
1328;SDS011;658;48.820;9.354;2023-05-21T19:28:26;3.20;;;3.00;;
1328;SDS011;658;48.820;9.354;2023-05-21T19:32:26;3.37;;;3.17;;
1328;SDS011;658;48.820;9.354;2023-05-21T19:36:27;4.03;;;3.20;;
1328;SDS011;658;48.820;9.354;2023-05-21T19:40:28;3.40;;;3.20;;
1328;SDS011;658;48.820;9.354;2023-05-21T19:44:29;3.10;;;2.90;;
1328;SDS011;658;48.820;9.354;2023-05-21T19:48:31;3.50;;;3.20;;
1328;SDS011;658;48.820;9.354;2023-05-21T19:52:34;3.37;;;3.17;;
1328;SDS011;658;48.820;9.354;2023-05-21T19:56:36;3.50;;;2.90;;
1328;SDS011;658;48.820;9.354;2023-05-21T20:00:36;3.20;;;3.00;;
1328;SDS011;658;48.820;9.354;2023-05-21T20:04:39;3.20;;;3.00;;
1328;SDS011;658;48.820;9.354;2023-05-21T20:08:40;3.10;;;2.90;;
1328;SDS011;658;48.820;9.354;2023-05-21T20:12:41;3.00;;;2.80;;
1328;SDS011;658;48.820;9.354;2023-05-21T20:16:43;3.00;;;2.80;;
1328;SDS011;658;48.820;9.354;2023-05-21T20:20:45;3.07;;;2.87;;
1328;SDS011;658;48.820;9.354;2023-05-21T20:24:46;3.27;;;3.07;;
1328;SDS011;658;48.820;9.354;2023-05-21T20:28:47;3.53;;;3.10;;
1328;SDS011;658;48.820;9.354;2023-05-21T20:32:47;3.10;;;2.90;;
1328;SDS011;658;48.820;9.354;2023-05-21T20:36:48;3.47;;;3.27;;
1328;SDS011;658;48.820;9.354;2023-05-21T20:40:49;3.33;;;3.13;;
1328;SDS011;658;48.820;9.354;2023-05-21T20:44:49;3.43;;;3.23;;
1328;SDS011;658;48.820;9.354;2023-05-21T20:48:51;4.07;;;3.80;;
1328;SDS011;658;48.820;9.354;2023-05-21T20:52:52;3.23;;;2.93;;
1328;SDS011;658;48.820;9.354;2023-05-21T20:56:53;3.43;;;3.03;;
1328;SDS011;658;48.820;9.354;2023-05-21T21:00:57;3.70;;;3.40;;
1328;SDS011;658;48.820;9.354;2023-05-21T21:05:00;3.37;;;3.13;;
1328;SDS011;658;48.820;9.354;2023-05-21T21:09:02;3.73;;;3.40;;
1328;SDS011;658;48.820;9.354;2023-05-21T21:13:03;3.40;;;3.20;;
1328;SDS011;658;48.820;9.354;2023-05-21T21:17:06;3.77;;;3.10;;
1328;SDS011;658;48.820;9.354;2023-05-21T21:21:09;3.87;;;3.57;;
1328;SDS011;658;48.820;9.354;2023-05-21T21:25:10;3.73;;;3.43;;
1328;SDS011;658;48.820;9.354;2023-05-21T21:29:11;3.57;;;3.30;;
1328;SDS011;658;48.820;9.354;2023-05-21T21:33:12;3.20;;;3.00;;
1328;SDS011;658;48.820;9.354;2023-05-21T21:37:15;3.57;;;3.27;;
1328;SDS011;658;48.820;9.354;2023-05-21T21:41:17;3.40;;;3.20;;
1328;SDS011;658;48.820;9.354;2023-05-21T21:45:19;3.37;;;3.17;;
1328;SDS011;658;48.820;9.354;2023-05-21T21:49:19;3.30;;;2.97;;
1328;SDS011;658;48.820;9.354;2023-05-21T21:53:20;3.50;;;3.30;;
1328;SDS011;658;48.820;9.354;2023-05-21T21:57:21;3.40;;;3.10;;
1328;SDS011;658;48.820;9.354;2023-05-21T22:01:26;3.40;;;3.20;;
1328;SDS011;658;48.820;9.354;2023-05-21T22:05:27;3.50;;;3.20;;
1328;SDS011;658;48.820;9.354;2023-05-21T22:09:29;3.50;;;3.30;;
1328;SDS011;658;48.820;9.354;2023-05-21T22:13:30;3.53;;;3.30;;
1328;SDS011;658;48.820;9.354;2023-05-21T22:17:31;3.00;;;2.80;;
1328;SDS011;658;48.820;9.354;2023-05-21T22:21:31;3.23;;;3.00;;
1328;SDS011;658;48.820;9.354;2023-05-21T22:25:32;3.23;;;3.00;;
1328;SDS011;658;48.820;9.354;2023-05-21T22:29:32;4.23;;;2.97;;
1328;SDS011;658;48.820;9.354;2023-05-21T22:33:33;3.60;;;3.30;;
1328;SDS011;658;48.820;9.354;2023-05-21T22:37:34;3.40;;;3.20;;
1328;SDS011;658;48.820;9.354;2023-05-21T22:41:37;3.57;;;3.37;;
1328;SDS011;658;48.820;9.354;2023-05-21T22:45:37;4.63;;;3.60;;
1328;SDS011;658;48.820;9.354;2023-05-21T22:49:39;3.07;;;2.87;;
1328;SDS011;658;48.820;9.354;2023-05-21T22:53:40;3.07;;;2.80;;
1328;SDS011;658;48.820;9.354;2023-05-21T22:57:41;3.50;;;3.30;;
1328;SDS011;658;48.820;9.354;2023-05-21T23:01:41;2.83;;;2.67;;
1328;SDS011;658;48.820;9.354;2023-05-21T23:05:42;3.30;;;3.10;;
1328;SDS011;658;48.820;9.354;2023-05-21T23:09:43;3.30;;;3.10;;
1328;SDS011;658;48.820;9.354;2023-05-21T23:13:45;3.20;;;3.00;;
1328;SDS011;658;48.820;9.354;2023-05-21T23:17:46;3.43;;;3.23;;
1328;SDS011;658;48.820;9.354;2023-05-21T23:21:47;3.30;;;3.10;;
1328;SDS011;658;48.820;9.354;2023-05-21T23:25:47;3.67;;;3.47;;
1328;SDS011;658;48.820;9.354;2023-05-21T23:29:48;3.50;;;3.30;;
1328;SDS011;658;48.820;9.354;2023-05-21T23:33:49;3.47;;;3.27;;
1328;SDS011;658;48.820;9.354;2023-05-21T23:37:50;3.50;;;3.30;;
1328;SDS011;658;48.820;9.354;2023-05-21T23:41:51;3.30;;;3.10;;
1328;SDS011;658;48.820;9.354;2023-05-21T23:45:54;3.30;;;3.10;;
1328;SDS011;658;48.820;9.354;2023-05-21T23:49:54;3.60;;;3.40;;
1328;SDS011;658;48.820;9.354;2023-05-21T23:53:55;3.20;;;3.00;;
1328;SDS011;658;48.820;9.354;2023-05-21T23:57:56;3.10;;;2.90;;
